Terminal Aerodrome Forecast
Issued by NWS

Home | Current Version | Previous Version | Text Only | Print | Product List | Glossary On
Versions: 1 2 3 4 5 6 7 8 9 10 11 12 13 14 15 16 17
564
FTUS43 KAPX 290542
TAFAPN
TAF
KAPN 290542Z 2906/3006 15003KT 1/4SM FG VV001
      TEMPO 2907/2910 1SM BR BKN002
     FM291000 23005KT 4SM BR SCT250
     FM291300 24005KT P6SM FEW250
     FM291800 24011G21KT P6SM VCTS BKN060CB
     FM292200 24009KT P6SM VCSH BKN060=

USA.gov is the U.S. government's official web portal to all federal, state and local government web resources and services.